Time;durP1;ratioP1;P1;durP2;ratioP2;P2;SDS_P1;SDS_P2;PMS_P1;PMS_P2;Temp;Humidity;BMP_temperature;BMP_pressure;BME280_temperature;BME280_humidity;BME280_pressure;Samples;Min_cycle;Max_cycle;Signal;HPM_P1;HPM_P2
2022/09/26 00:01:18;;;;;;;2.05;1.92;;;;;;;10.65;71.55;98219.94;5107287;28;20019;-82
2022/09/26 00:03:50;;;;;;;4.13;2.22;;;;;;;10.63;71.65;98203.41;5102936;28;20058;-82
2022/09/26 00:06:16;;;;;;;4.20;2.13;;;;;;;10.43;71.50;98180.94;5106864;28;20031;-83
2022/09/26 00:08:43;;;;;;;2.88;2.35;;;;;;;10.19;72.55;98177.16;5099155;28;20069;-82
2022/09/26 00:11:11;;;;;;;7.88;2.30;;;;;;;9.50;74.15;98205.03;5105665;27;20054;-82
2022/09/26 00:13:39;;;;;;;5.78;3.30;;;;;;;8.94;76.02;98162.03;5104834;28;20020;-82
2022/09/26 00:16:05;;;;;;;5.03;2.55;;;;;;;9.32;74.99;98187.59;5107618;28;20473;-82
2022/09/26 00:18:31;;;;;;;4.35;2.53;;;;;;;9.23;77.05;98197.13;5104373;28;20023;-83
2022/09/26 00:21:08;;;;;;;5.32;2.40;;;;;;;9.94;74.33;98184.22;5104900;28;20034;-82
2022/09/26 00:23:34;;;;;;;4.47;1.95;;;;;;;10.23;72.70;98188.06;5105130;28;20080;-82
2022/09/26 00:26:00;;;;;;;5.00;2.42;;;;;;;10.08;71.83;98166.66;5102467;28;20031;-82
2022/09/26 00:28:26;;;;;;;6.13;2.28;;;;;;;9.61;74.57;98166.75;5103597;28;20417;-82
2022/09/26 00:30:52;;;;;;;6.05;2.63;;;;;;;9.75;73.90;98189.19;5105497;28;20060;-82
2022/09/26 00:33:17;;;;;;;3.08;2.30;;;;;;;9.41;74.94;98177.28;5083877;28;20083;-82
2022/09/26 00:35:50;;;;;;;6.80;2.92;;;;;;;8.90;75.95;98166.25;5084609;28;20031;-82
2022/09/26 00:38:16;;;;;;;6.18;2.72;;;;;;;9.32;75.18;98165.50;5102393;28;20046;-82
2022/09/26 00:40:41;;;;;;;4.53;2.47;;;;;;;9.39;76.04;98160.75;5102039;28;20027;-81
2022/09/26 00:43:46;;;;;;;3.50;2.17;;;;;;;10.18;73.27;98172.06;5103864;27;20110;-83
2022/09/26 00:46:26;;;;;;;3.30;2.40;;;;;;;10.27;72.48;98141.16;5107265;28;20027;-81
2022/09/26 00:49:01;;;;;;;4.25;2.63;;;;;;;10.34;72.64;98155.03;5102725;28;20509;-82
2022/09/26 00:51:27;;;;;;;2.88;2.55;;;;;;;9.76;73.51;98135.63;5108298;28;20692;-82
2022/09/26 00:53:54;;;;;;;3.83;2.72;;;;;;;9.69;74.01;98127.09;5101743;28;20088;-83
2022/09/26 00:56:25;;;;;;;5.93;2.88;;;;;;;9.76;73.60;98122.28;5107587;28;20068;-82
2022/09/26 00:59:00;;;;;;;5.40;3.67;;;;;;;9.57;74.31;98145.13;5088059;28;20031;-83
2022/09/26 01:01:26;;;;;;;7.82;3.45;;;;;;;8.92;75.40;98112.78;5104456;28;20024;-82
2022/09/26 01:03:52;;;;;;;5.32;2.85;;;;;;;9.35;75.20;98117.06;5086122;28;20453;-83
2022/09/26 01:06:18;;;;;;;4.78;2.50;;;;;;;9.85;73.73;98124.47;5102600;28;20042;-82
2022/09/26 01:08:50;;;;;;;5.60;2.67;;;;;;;9.58;75.00;98137.94;5099531;28;20032;-83
2022/09/26 01:11:15;;;;;;;4.82;3.42;;;;;;;9.86;73.81;98124.22;5108024;28;20494;-82
2022/09/26 01:13:42;;;;;;;6.28;3.63;;;;;;;9.47;74.03;98121.13;5108592;27;20032;-83
2022/09/26 01:16:08;;;;;;;3.42;2.42;;;;;;;9.52;74.35;98099.81;5107033;28;20111;-82
2022/09/26 01:18:34;;;;;;;8.68;3.25;;;;;;;9.59;73.77;98104.91;5106463;28;20036;-82
2022/09/26 01:21:14;;;;;;;5.25;2.90;;;;;;;9.69;73.77;98115.63;5069761;27;20474;-82
2022/09/26 01:23:54;;;;;;;4.57;3.15;;;;;;;9.32;74.16;98096.25;5105869;28;20030;-82
2022/09/26 01:26:22;;;;;;;6.65;3.28;;;;;;;9.27;75.45;98107.69;5109561;28;20028;-82
2022/09/26 01:28:54;;;;;;;5.63;3.55;;;;;;;8.93;76.43;98112.50;5104646;28;20428;-81
2022/09/26 01:32:47;;;;;;;3.92;2.90;;;;;;;8.99;76.14;98106.19;5103019;27;20027;-81
2022/09/26 01:34:44;;;;;;;8.57;3.67;;;;;;;8.72;76.82;98104.63;5104893;28;20035;-82
2022/09/26 01:37:28;;;;;;;4.63;3.42;;;;;;;8.38;78.58;98096.13;5104901;28;20470;-83
2022/09/26 01:40:09;;;;;;;6.03;3.80;;;;;;;8.62;77.15;98099.25;5104870;27;20058;-82
2022/09/26 01:43:14;;;;;;;5.07;3.05;;;;;;;9.22;75.43;98059.72;5106728;28;20020;-82
2022/09/26 01:46:04;;;;;;;4.95;2.30;;;;;;;9.97;72.99;98095.72;5076172;28;20058;-82
2022/09/26 01:48:35;;;;;;;5.43;2.60;;;;;;;9.98;72.69;98084.00;5104832;28;20020;-82
2022/09/26 01:51:27;;;;;;;4.07;2.63;;;;;;;10.09;72.99;98091.75;5119189;27;20077;-82
2022/09/26 01:54:07;;;;;;;3.30;2.10;;;;;;;10.18;72.80;98092.84;5093021;28;20060;-83
2022/09/26 01:56:37;;;;;;;3.70;3.13;;;;;;;10.11;72.60;98073.63;5100479;28;20027;-82
2022/09/26 01:59:08;;;;;;;5.65;2.92;;;;;;;10.21;72.85;98078.19;5086649;28;20023;-82
2022/09/26 02:01:38;;;;;;;4.78;2.60;;;;;;;10.17;72.41;98061.13;5098528;28;20028;-82
2022/09/26 02:04:09;;;;;;;5.63;2.72;;;;;;;10.34;72.49;98077.69;5107905;28;20015;-83
2022/09/26 02:07:23;;;;;;;3.35;2.42;;;;;;;10.16;72.68;98048.84;5101479;28;20460;-83
2022/09/26 02:09:58;;;;;;;3.75;2.58;;;;;;;10.17;72.77;98053.13;5103402;28;20556;-83
2022/09/26 02:12:31;;;;;;;4.90;2.67;;;;;;;10.10;73.02;98063.22;5103625;28;20531;-83
2022/09/26 02:15:00;;;;;;;4.75;2.90;;;;;;;10.17;72.91;98051.28;5104389;28;20032;-82
2022/09/26 02:17:32;;;;;;;5.55;2.67;;;;;;;10.23;72.42;98050.22;5103364;28;20108;-82
2022/09/26 02:20:01;;;;;;;2.60;2.40;;;;;;;10.29;72.33;98059.81;5104902;28;20115;-82
2022/09/26 02:22:32;;;;;;;8.43;2.80;;;;;;;10.28;73.04;98055.56;5099937;28;20023;-83
2022/09/26 02:24:58;;;;;;;9.30;2.38;;;;;;;10.29;73.18;98051.00;5102221;28;20038;-83
2022/09/26 02:27:25;;;;;;;4.07;2.20;;;;;;;10.08;72.83;98020.03;5102637;28;20114;-83
2022/09/26 02:29:50;;;;;;;4.50;2.20;;;;;;;10.25;72.76;98040.06;5096606;28;20031;-82
2022/09/26 02:32:20;;;;;;;2.83;2.00;;;;;;;10.25;72.84;98041.94;5100390;28;20031;-82
2022/09/26 02:34:47;;;;;;;10.75;3.45;;;;;;;10.04;73.04;98029.63;5085256;28;20023;-82
2022/09/26 02:37:19;;;;;;;3.20;2.78;;;;;;;10.22;73.45;98043.25;5086817;28;20030;-82
2022/09/26 02:39:46;;;;;;;6.97;3.40;;;;;;;10.06;74.12;98040.81;5100989;28;20135;-82
2022/09/26 02:42:32;;;;;;;5.78;2.83;;;;;;;10.31;73.06;98036.34;5106288;28;20066;-82
2022/09/26 02:45:09;;;;;;;6.80;2.80;;;;;;;10.19;73.57;98041.16;5108448;28;20028;-82
2022/09/26 02:47:46;;;;;;;4.35;2.50;;;;;;;10.38;73.07;98030.72;5098537;28;20276;-82
2022/09/26 02:50:36;;;;;;;3.60;2.72;;;;;;;10.37;73.06;98023.81;5106750;28;20031;-83
2022/09/26 02:53:27;;;;;;;5.32;2.72;;;;;;;10.36;73.73;98012.34;5101876;28;20038;-83
2022/09/26 02:56:34;;;;;;;5.80;2.30;;;;;;;10.21;74.36;98007.00;5100951;28;20038;-82
2022/09/26 02:59:06;;;;;;;4.30;2.20;;;;;;;10.25;74.13;98008.06;5089786;28;20032;-82
2022/09/26 03:01:41;;;;;;;3.80;2.40;;;;;;;10.43;73.78;98010.22;5104327;28;20495;-82
2022/09/26 03:04:20;;;;;;;4.20;2.00;;;;;;;10.50;73.04;98010.75;5100996;28;20031;-82
2022/09/26 03:06:49;;;;;;;4.85;1.85;;;;;;;10.35;73.60;97997.38;5100698;28;20024;-83
2022/09/26 03:09:17;;;;;;;8.55;2.25;;;;;;;10.28;73.82;97972.06;5100449;28;20115;-82
2022/09/26 03:11:43;;;;;;;4.43;2.00;;;;;;;10.48;73.97;97988.06;5101648;28;20042;-81
2022/09/26 03:14:11;;;;;;;4.85;2.15;;;;;;;10.44;73.44;97977.13;5085705;28;20027;-82
2022/09/26 03:16:41;;;;;;;1.83;1.63;;;;;;;10.55;73.48;97983.22;5105916;28;20027;-82
2022/09/26 03:19:40;;;;;;;2.38;1.85;;;;;;;10.50;73.97;97983.25;5105020;28;20098;-81
2022/09/26 03:22:07;;;;;;;4.07;1.90;;;;;;;10.20;74.61;97946.72;5109804;28;20030;-82
2022/09/26 03:24:35;;;;;;;6.45;2.10;;;;;;;10.30;74.71;97960.06;5104961;28;20032;-82
2022/09/26 03:27:03;;;;;;;4.80;2.10;;;;;;;10.45;74.53;97964.59;5094268;28;20118;-81
2022/09/26 03:29:30;;;;;;;4.07;2.08;;;;;;;10.33;74.89;97964.06;5106508;28;20034;-82
2022/09/26 03:31:56;;;;;;;2.17;1.90;;;;;;;10.33;74.22;97948.84;5107408;28;20169;-82
2022/09/26 03:34:21;;;;;;;4.45;2.00;;;;;;;10.32;74.36;97949.94;5104454;28;20106;-84
2022/09/26 03:36:46;;;;;;;7.25;2.40;;;;;;;10.37;74.39;97952.59;5090309;28;20494;-82
2022/09/26 03:39:12;;;;;;;3.53;1.98;;;;;;;10.34;74.48;97958.47;5072356;28;20456;-83
2022/09/26 03:41:38;;;;;;;4.28;2.58;;;;;;;10.35;74.53;97936.03;5106935;27;20034;-83
2022/09/26 03:44:03;;;;;;;4.10;1.60;;;;;;;10.40;73.91;97935.25;5103258;28;20023;-82
2022/09/26 03:46:28;;;;;;;1.90;1.52;;;;;;;10.48;73.57;97940.81;5106732;28;20111;-82
2022/09/26 03:48:54;;;;;;;5.30;2.20;;;;;;;10.57;73.64;97949.09;5088872;28;20031;-82
2022/09/26 03:51:19;;;;;;;4.57;1.58;;;;;;;10.24;74.94;97929.13;5086651;28;20596;-82
2022/09/26 03:53:48;;;;;;;3.47;1.90;;;;;;;10.51;73.77;97926.94;5106984;27;20028;-84
2022/09/26 03:56:16;;;;;;;5.22;1.80;;;;;;;10.66;73.83;97936.78;5104778;28;20032;-84
2022/09/26 03:58:42;;;;;;;7.20;2.17;;;;;;;10.53;73.75;97935.47;5100310;28;20027;-83
2022/09/26 04:01:11;;;;;;;7.75;2.05;;;;;;;10.52;74.57;97935.75;5085162;28;20032;-83
2022/09/26 04:03:38;;;;;;;3.42;1.90;;;;;;;10.51;73.89;97932.28;5085463;28;20042;-80
2022/09/26 04:06:07;;;;;;;7.18;2.38;;;;;;;10.39;73.65;97909.66;5103927;28;20020;-80
2022/09/26 04:08:33;;;;;;;4.68;1.88;;;;;;;10.58;73.89;97921.34;5104583;28;20031;-81
2022/09/26 04:11:03;;;;;;;4.63;1.88;;;;;;;10.62;73.26;97927.72;5102244;28;20414;-80
2022/09/26 04:13:29;;;;;;;4.80;1.83;;;;;;;10.61;74.00;97915.47;5103727;28;20418;-80
2022/09/26 04:15:56;;;;;;;2.20;1.75;;;;;;;10.52;73.79;97911.75;5081546;28;20092;-82
2022/09/26 04:18:21;;;;;;;1.80;1.70;;;;;;;10.61;73.86;97912.00;5102042;28;20066;-82
2022/09/26 04:20:46;;;;;;;8.00;2.05;;;;;;;10.47;74.10;97891.22;5104477;28;20019;-82
2022/09/26 04:23:12;;;;;;;6.93;1.92;;;;;;;10.61;73.50;97896.78;5107635;28;20031;-82
2022/09/26 04:25:38;;;;;;;5.20;2.15;;;;;;;10.62;73.35;97897.56;5089027;28;20028;-82
2022/09/26 04:28:03;;;;;;;4.60;2.22;;;;;;;10.31;74.12;97878.97;5106878;28;20035;-82
2022/09/26 04:30:29;;;;;;;4.57;1.98;;;;;;;10.45;73.47;97874.69;5087625;28;20480;-82
2022/09/26 04:32:54;;;;;;;3.75;1.85;;;;;;;10.43;73.87;97884.03;5071624;28;20093;-81
2022/09/26 04:35:20;;;;;;;4.78;2.25;;;;;;;10.31;74.09;97878.97;5101920;27;20105;-82
2022/09/26 04:37:46;;;;;;;5.47;1.90;;;;;;;10.42;74.39;97877.06;5100719;28;20040;-82
2022/09/26 04:40:12;;;;;;;4.90;2.00;;;;;;;10.54;73.76;97867.72;5101616;28;20486;-82
2022/09/26 04:42:37;;;;;;;5.03;2.05;;;;;;;10.57;73.63;97876.25;5089465;28;20064;-82
2022/09/26 04:45:04;;;;;;;5.07;2.42;;;;;;;10.26;73.68;97840.88;5105978;28;20019;-82
2022/09/26 04:47:29;;;;;;;5.13;2.38;;;;;;;10.70;73.39;97873.00;5115174;27;20028;-81
2022/09/26 04:49:54;;;;;;;5.13;2.17;;;;;;;10.59;73.47;97871.44;5105368;28;20032;-82
2022/09/26 04:52:20;;;;;;;6.25;2.35;;;;;;;10.70;72.98;97868.47;5109971;27;20019;-82
2022/09/26 04:54:45;;;;;;;3.20;2.30;;;;;;;10.78;72.96;97864.44;5111645;27;20039;-82
2022/09/26 04:57:13;;;;;;;4.40;2.03;;;;;;;10.47;73.68;97851.19;5081255;28;20024;-82
2022/09/26 04:59:38;;;;;;;4.38;2.22;;;;;;;10.62;73.33;97868.22;5074194;28;20032;-82
2022/09/26 05:02:07;;;;;;;5.30;2.22;;;;;;;10.61;73.05;97848.75;5093359;28;20043;-82
2022/09/26 05:04:32;;;;;;;4.97;2.38;;;;;;;10.56;73.76;97859.44;5091923;28;20032;-81
2022/09/26 05:06:58;;;;;;;7.28;2.25;;;;;;;10.37;73.89;97837.09;5111362;28;20097;-82
2022/09/26 05:09:24;;;;;;;7.18;2.40;;;;;;;10.39;74.82;97851.78;5087624;28;20436;-82
2022/09/26 05:11:49;;;;;;;6.28;3.90;;;;;;;10.21;74.44;97827.53;5103794;27;20039;-82
2022/09/26 05:14:15;;;;;;;3.85;2.63;;;;;;;10.43;73.10;97833.34;5092847;28;20035;-82
2022/09/26 05:16:40;;;;;;;7.97;2.33;;;;;;;10.15;74.27;97840.09;5083287;28;20028;-82
2022/09/26 05:19:07;;;;;;;6.35;2.42;;;;;;;9.75;76.00;97829.44;5086315;28;20028;-82
2022/09/26 05:21:32;;;;;;;5.43;3.38;;;;;;;9.39;76.54;97822.53;5074177;28;20024;-81
2022/09/26 05:26:48;;;;;;;2.72;2.20;;;;;;;10.07;74.56;97816.59;5104137;28;20050;-82
2022/09/26 05:29:14;;;;;;;4.85;2.80;;;;;;;10.38;74.30;97820.81;5104840;28;20030;-82
2022/09/26 05:31:40;;;;;;;6.07;3.08;;;;;;;10.19;74.41;97816.34;5104558;28;20028;-82
2022/09/26 05:34:09;;;;;;;4.15;2.58;;;;;;;10.24;74.59;97827.78;5104029;28;20035;-82
2022/09/26 05:36:34;;;;;;;3.85;2.55;;;;;;;10.25;74.52;97837.38;5103727;28;20024;-82
2022/09/26 05:39:00;;;;;;;5.68;3.00;;;;;;;10.29;74.21;97819.78;5108238;28;20032;-82
2022/09/26 05:41:30;;;;;;;4.03;2.25;;;;;;;10.20;73.96;97797.41;5105197;28;20027;-82
2022/09/26 05:43:56;;;;;;;5.10;2.70;;;;;;;10.35;74.22;97821.34;5101380;28;20059;-81
2022/09/26 05:46:24;;;;;;;6.75;3.00;;;;;;;10.22;74.73;97821.16;5119103;27;20027;-82
2022/09/26 05:48:50;;;;;;;9.50;3.10;;;;;;;10.44;74.38;97819.72;5102626;28;20015;-82
2022/09/26 05:51:18;;;;;;;5.03;2.83;;;;;;;10.45;73.59;97818.66;5102425;28;20495;-81
2022/09/26 05:53:44;;;;;;;6.88;3.30;;;;;;;10.21;74.26;97787.53;5105321;28;20024;-81
2022/09/26 05:56:11;;;;;;;5.63;3.05;;;;;;;10.32;74.78;97824.56;5088509;28;20039;-82
2022/09/26 05:58:38;;;;;;;6.38;3.65;;;;;;;10.35;73.99;97826.69;5107898;28;20043;-82
2022/09/26 06:01:06;;;;;;;6.65;3.60;;;;;;;10.41;74.20;97822.16;5110723;28;20020;-81
2022/09/26 06:03:33;;;;;;;5.43;3.03;;;;;;;10.41;73.99;97817.63;5109007;28;20517;-81
2022/09/26 06:06:17;;;;;;;9.85;2.83;;;;;;;10.52;73.38;97818.38;5109316;28;20122;-82
2022/09/26 06:08:43;;;;;;;4.95;3.08;;;;;;;10.55;73.99;97805.28;5102809;28;20080;-81
2022/09/26 06:11:17;;;;;;;6.38;3.35;;;;;;;10.27;74.11;97771.25;5109502;28;20032;-82
2022/09/26 06:13:44;;;;;;;11.82;3.50;;;;;;;10.27;74.62;97787.25;5103834;28;20106;-81
2022/09/26 06:16:20;;;;;;;10.45;4.07;;;;;;;10.26;74.04;97784.88;5091313;28;20387;-82
2022/09/26 06:18:48;;;;;;;10.95;4.20;;;;;;;10.42;74.32;97799.72;5108198;28;20130;-81
2022/09/26 06:21:16;;;;;;;11.95;3.60;;;;;;;10.31;74.42;97800.84;5104671;28;20039;-82
2022/09/26 06:23:41;;;;;;;11.35;4.35;;;;;;;10.32;74.81;97797.91;5108221;28;20028;-82
2022/09/26 06:26:10;;;;;;;6.25;4.00;;;;;;;10.30;74.41;97794.72;5108025;28;20019;-81
2022/09/26 06:28:35;;;;;;;6.43;4.45;;;;;;;10.16;74.87;97790.22;5105197;28;20511;-81
2022/09/26 06:31:15;;;;;;;8.05;3.97;;;;;;;10.33;75.05;97796.81;5108071;28;20020;-82
2022/09/26 06:33:41;;;;;;;7.05;3.40;;;;;;;10.21;74.78;97775.00;5108248;28;20433;-82
2022/09/26 06:36:09;;;;;;;9.40;3.97;;;;;;;10.28;75.63;97783.53;5108443;28;20027;-82
2022/09/26 06:38:35;;;;;;;8.70;4.28;;;;;;;10.28;75.54;97775.53;5105977;28;20085;-82
2022/09/26 06:41:01;;;;;;;6.90;3.90;;;;;;;10.46;74.92;97777.56;5100078;28;20078;-81
2022/09/26 06:43:26;;;;;;;8.88;4.07;;;;;;;10.48;74.94;97769.31;5109263;28;20019;-81
2022/09/26 06:45:52;;;;;;;10.70;3.65;;;;;;;10.42;75.38;97768.50;5108189;28;20487;-81
2022/09/26 06:48:18;;;;;;;6.70;4.20;;;;;;;10.41;75.45;97753.59;5102956;28;20039;-81
2022/09/26 06:50:44;;;;;;;9.25;4.05;;;;;;;10.50;75.27;97765.31;5086978;28;20475;-83
2022/09/26 06:53:09;;;;;;;8.48;4.22;;;;;;;10.40;75.23;97753.84;5098393;28;20028;-83
2022/09/26 06:55:35;;;;;;;9.05;4.03;;;;;;;10.33;75.72;97735.47;5110356;28;20031;-84
2022/09/26 06:58:00;;;;;;;9.35;4.03;;;;;;;10.39;75.15;97734.41;5093727;28;20038;-82
2022/09/26 07:00:28;;;;;;;5.80;3.80;;;;;;;10.57;75.24;97745.53;5094540;28;20058;-82
2022/09/26 07:02:54;;;;;;;12.00;4.35;;;;;;;10.71;75.02;97747.28;5109919;28;20024;-82
2022/09/26 07:05:21;;;;;;;6.78;3.55;;;;;;;10.69;74.57;97721.94;5093570;28;20035;-83
2022/09/26 07:07:47;;;;;;;5.53;4.35;;;;;;;10.54;74.77;97714.84;5093060;28;20028;-83
2022/09/26 07:10:14;;;;;;;12.82;4.10;;;;;;;10.83;74.86;97746.97;5111827;28;20106;-83
2022/09/26 07:12:43;;;;;;;7.97;4.13;;;;;;;10.80;74.54;97737.63;5104611;28;20455;-83
2022/09/26 07:15:12;;;;;;;8.63;4.35;;;;;;;11.02;74.69;97737.22;5110581;28;20016;-83
2022/09/26 07:17:38;;;;;;;4.28;3.38;;;;;;;10.88;75.01;97755.72;5110707;27;20383;-83
2022/09/26 07:20:04;;;;;;;7.30;3.72;;;;;;;10.87;74.99;97726.66;5105394;28;20517;-83
2022/09/26 07:22:30;;;;;;;6.25;3.78;;;;;;;10.99;74.65;97746.56;5084961;28;20038;-83
2022/09/26 07:24:55;;;;;;;6.55;3.10;;;;;;;10.93;74.46;97736.22;5101365;28;20028;-82
2022/09/26 07:27:20;;;;;;;11.90;4.00;;;;;;;10.81;74.83;97736.53;5084640;28;20028;-83
2022/09/26 07:29:47;;;;;;;9.32;3.78;;;;;;;10.84;74.84;97729.88;5104526;28;20115;-83
2022/09/26 07:32:13;;;;;;;6.00;3.50;;;;;;;10.94;74.56;97727.91;5092193;28;20123;-82
2022/09/26 07:34:39;;;;;;;7.10;4.38;;;;;;;10.99;75.29;97737.75;5109452;28;20551;-83
2022/09/26 07:37:06;;;;;;;8.35;3.42;;;;;;;10.99;74.77;97733.22;5100316;28;20028;-83
2022/09/26 07:39:31;;;;;;;8.98;3.63;;;;;;;11.07;74.25;97721.16;5108386;28;20027;-83
2022/09/26 07:41:59;;;;;;;6.45;3.58;;;;;;;11.05;74.46;97734.78;5109147;28;20030;-82
2022/09/26 07:44:24;;;;;;;7.13;3.58;;;;;;;11.02;74.96;97726.53;5110307;28;20040;-83
2022/09/26 07:52:21;;;;;;;7.88;3.40;;;;;;;10.95;75.06;97729.53;5109578;28;20051;-83
2022/09/26 07:54:46;;;;;;;8.77;4.65;;;;;;;11.02;75.11;97721.19;5111366;28;20031;-82
2022/09/26 07:57:11;;;;;;;9.30;4.38;;;;;;;10.74;75.43;97693.38;5107986;28;20379;-83
2022/09/26 07:59:37;;;;;;;5.78;3.60;;;;;;;10.83;75.30;97694.38;5107621;28;20371;-83
2022/09/26 08:02:02;;;;;;;9.48;4.38;;;;;;;10.94;75.23;97703.88;5090398;28;20424;-82
2022/09/26 08:04:28;;;;;;;6.28;3.63;;;;;;;11.02;75.09;97716.66;5109680;28;20507;-83
2022/09/26 08:06:56;;;;;;;10.07;3.88;;;;;;;10.91;75.29;97701.78;5085129;28;20043;-83
2022/09/26 08:09:21;;;;;;;7.93;4.03;;;;;;;10.96;75.77;97709.78;5088233;28;20040;-82
2022/09/26 08:11:46;;;;;;;9.10;3.53;;;;;;;10.92;75.24;97691.91;5090665;28;20035;-82
2022/09/26 08:14:12;;;;;;;8.68;4.15;;;;;;;10.98;75.25;97698.81;5089765;28;20023;-83
2022/09/26 08:16:40;;;;;;;6.38;3.65;;;;;;;11.01;75.71;97715.06;5090235;28;20031;-83
2022/09/26 08:19:07;;;;;;;7.45;4.57;;;;;;;10.99;75.80;97706.53;5106481;28;20131;-82
2022/09/26 08:21:33;;;;;;;7.53;4.20;;;;;;;10.98;75.33;97696.94;5108128;28;20031;-83
2022/09/26 08:23:58;;;;;;;7.60;4.25;;;;;;;11.04;75.34;97714.50;5090114;28;20032;-83
2022/09/26 08:26:24;;;;;;;7.10;3.65;;;;;;;11.01;75.54;97711.59;5089926;28;20027;-83
2022/09/26 08:28:49;;;;;;;8.55;4.22;;;;;;;10.99;75.45;97697.72;5104720;28;20391;-82
2022/09/26 08:31:16;;;;;;;7.45;4.18;;;;;;;11.08;75.51;97709.41;5107948;28;20040;-83
2022/09/26 08:33:43;;;;;;;5.95;4.10;;;;;;;11.05;75.67;97704.63;5108911;28;20142;-83
2022/09/26 08:36:10;;;;;;;9.27;5.55;;;;;;;11.21;75.35;97704.22;5089806;28;20032;-82
2022/09/26 08:38:37;;;;;;;12.82;4.30;;;;;;;11.33;75.05;97701.19;5088226;28;20034;-83
2022/09/26 08:41:15;;;;;;;6.97;4.13;;;;;;;11.33;75.39;97696.63;5087636;28;20096;-83
2022/09/26 08:43:59;;;;;;;5.18;4.55;;;;;;;11.27;75.08;97680.91;5107712;28;20027;-83
2022/09/26 08:46:58;;;;;;;5.45;4.30;;;;;;;11.41;74.76;97689.88;5095750;28;20028;-83
2022/09/26 08:49:53;;;;;;;9.63;4.82;;;;;;;11.43;74.77;97690.41;5103308;28;20051;-82
2022/09/26 08:52:37;;;;;;;10.07;6.00;;;;;;;11.53;75.05;97692.19;5034162;28;20037;-83
2022/09/26 08:55:30;;;;;;;12.48;5.18;;;;;;;11.66;74.47;97694.19;5101684;28;20035;-82
2022/09/26 08:58:00;;;;;;;10.57;5.38;;;;;;;11.70;74.50;97690.69;5097129;28;20079;-82
2022/09/26 09:00:30;;;;;;;6.63;4.40;;;;;;;11.70;73.90;97681.88;5109527;28;20023;-83
2022/09/26 09:03:04;;;;;;;7.18;5.38;;;;;;;11.85;74.40;97679.84;5095920;28;20071;-83
2022/09/26 09:05:38;;;;;;;12.07;5.57;;;;;;;11.83;74.13;97681.19;5107277;28;20024;-82
2022/09/26 09:08:06;;;;;;;6.28;5.05;;;;;;;11.85;73.96;97687.06;5091437;28;20028;-83
2022/09/26 09:10:49;;;;;;;6.15;5.55;;;;;;;11.87;73.70;97676.88;5110127;27;20048;-83
2022/09/26 09:13:45;;;;;;;9.82;6.75;;;;;;;11.84;74.14;97686.25;5102591;28;20024;-83
2022/09/26 09:16:13;;;;;;;6.78;5.35;;;;;;;11.96;73.44;97697.34;5108215;28;20030;-83
2022/09/26 09:18:53;;;;;;;12.32;5.80;;;;;;;11.81;73.74;97689.50;5107122;28;20501;-83
2022/09/26 09:21:37;;;;;;;9.55;6.28;;;;;;;11.89;73.40;97686.22;5102159;28;20085;-83
2022/09/26 09:24:23;;;;;;;11.05;6.55;;;;;;;11.74;73.52;97659.66;5097923;28;20031;-83
2022/09/26 09:27:03;;;;;;;9.55;6.28;;;;;;;11.72;73.99;97671.69;5103288;28;20065;-82
2022/09/26 09:29:41;;;;;;;8.30;5.28;;;;;;;11.67;73.83;97663.72;5102976;27;20755;-82
2022/09/26 09:32:11;;;;;;;7.53;5.40;;;;;;;11.68;73.52;97639.41;5103019;27;20051;-82
2022/09/26 09:34:43;;;;;;;9.00;5.75;;;;;;;11.71;73.35;97638.00;5107553;28;20032;-82
2022/09/26 09:37:19;;;;;;;6.50;4.70;;;;;;;11.67;73.56;97648.50;5101007;28;20027;-83
2022/09/26 09:39:47;;;;;;;6.45;4.68;;;;;;;11.77;73.24;97648.38;5106628;28;20031;-82
2022/09/26 09:42:49;;;;;;;7.28;4.72;;;;;;;11.86;72.83;97653.91;5108863;28;20055;-83
2022/09/26 09:45:21;;;;;;;7.88;3.50;;;;;;;11.73;72.41;97638.56;5066182;28;20062;-83
2022/09/26 09:47:47;;;;;;;5.72;4.05;;;;;;;11.75;72.51;97633.72;5107086;28;20026;-82
2022/09/26 09:50:29;;;;;;;4.80;3.83;;;;;;;11.94;72.17;97643.38;5098948;28;20023;-83
2022/09/26 09:53:27;;;;;;;9.10;3.97;;;;;;;12.11;71.58;97634.84;5107610;27;20153;-82
2022/09/26 09:56:35;;;;;;;6.63;3.28;;;;;;;12.13;71.31;97623.88;5083739;28;20733;-82
2022/09/26 09:59:24;;;;;;;6.95;3.63;;;;;;;12.19;71.11;97628.84;5106904;28;20118;-82
2022/09/26 10:02:09;;;;;;;5.82;3.83;;;;;;;12.28;70.37;97621.78;5099977;28;20051;-83
2022/09/26 10:04:45;;;;;;;5.00;3.30;;;;;;;12.32;70.65;97624.69;5102516;28;20093;-82
2022/09/26 10:07:11;;;;;;;6.22;3.88;;;;;;;12.29;70.50;97617.22;5106364;28;20110;-82
2022/09/26 10:09:42;;;;;;;10.25;4.03;;;;;;;12.22;70.06;97611.44;5105651;28;20118;-83
2022/09/26 10:12:16;;;;;;;5.72;3.40;;;;;;;12.27;70.27;97600.69;5101595;28;20108;-83
2022/09/26 10:14:55;;;;;;;6.55;3.33;;;;;;;12.20;69.87;97570.81;5103937;28;20077;-83
2022/09/26 10:17:22;;;;;;;10.90;3.65;;;;;;;12.26;69.10;97556.25;5100932;28;20479;-83
2022/09/26 10:19:48;;;;;;;3.85;2.65;;;;;;;12.55;69.01;97584.47;5105841;28;20045;-82
2022/09/26 10:22:42;;;;;;;4.00;2.75;;;;;;;12.41;69.09;97572.09;5107799;28;20072;-82
2022/09/26 10:25:20;;;;;;;4.97;2.90;;;;;;;12.62;68.26;97581.41;5103252;28;20020;-82
2022/09/26 10:27:52;;;;;;;5.18;2.83;;;;;;;12.66;67.76;97575.19;5104406;28;20027;-82
2022/09/26 10:30:17;;;;;;;6.07;2.47;;;;;;;12.70;67.71;97578.84;5113203;28;20016;-82
2022/09/26 10:32:52;;;;;;;6.78;2.45;;;;;;;12.66;67.92;97569.03;5111546;28;20024;-83
2022/09/26 10:35:23;;;;;;;3.65;2.33;;;;;;;12.75;67.60;97569.94;5096068;28;20028;-82
2022/09/26 10:38:05;;;;;;;8.45;3.03;;;;;;;12.77;67.08;97567.78;5111713;28;20092;-83
2022/09/26 10:40:49;;;;;;;3.40;2.50;;;;;;;12.92;66.98;97570.19;5122583;27;20019;-83
2022/09/26 10:43:24;;;;;;;9.75;3.67;;;;;;;13.02;66.43;97572.69;5107054;28;20050;-82
2022/09/26 10:45:58;;;;;;;5.30;2.50;;;;;;;13.05;66.60;97561.41;5109820;28;20031;-83
2022/09/26 10:48:54;;;;;;;8.75;2.50;;;;;;;13.16;65.90;97557.47;5112951;28;20352;-82
2022/09/26 10:51:19;;;;;;;3.83;2.53;;;;;;;13.35;65.34;97581.47;5106496;28;20027;-83
2022/09/26 10:53:47;;;;;;;9.43;2.38;;;;;;;13.40;65.40;97573.34;5110913;28;20429;-82
2022/09/26 10:56:22;;;;;;;6.32;2.00;;;;;;;13.45;64.28;97566.00;5107983;28;20066;-82
2022/09/26 10:58:50;;;;;;;6.13;2.53;;;;;;;13.47;64.38;97563.03;5109800;28;20032;-83
2022/09/26 11:01:19;;;;;;;4.18;2.50;;;;;;;13.54;64.00;97574.94;5104380;28;20370;-83
2022/09/26 11:03:45;;;;;;;4.78;2.50;;;;;;;13.42;63.57;97555.88;5107096;27;20054;-83
2022/09/26 11:06:26;;;;;;;7.78;2.35;;;;;;;13.60;63.40;97561.44;5128985;27;20114;-83
2022/09/26 11:08:57;;;;;;;3.75;2.20;;;;;;;13.52;63.33;97547.63;5109762;28;20040;-83
2022/09/26 11:11:23;;;;;;;2.17;1.98;;;;;;;13.52;63.69;97561.03;5090908;28;20033;-83
2022/09/26 11:13:55;;;;;;;2.63;2.22;;;;;;;13.50;63.52;97563.22;5094335;28;20100;-83
2022/09/26 11:16:20;;;;;;;7.00;2.33;;;;;;;13.51;63.43;97553.31;5107326;28;20020;-82
2022/09/26 11:18:49;;;;;;;4.32;2.10;;;;;;;13.60;63.02;97545.34;5097156;28;20359;-83
2022/09/26 11:21:41;;;;;;;2.60;2.40;;;;;;;13.53;63.39;97532.34;5110470;28;20043;-83
2022/09/26 11:24:13;;;;;;;5.75;2.70;;;;;;;13.62;63.35;97549.34;5110329;28;20111;-82
2022/09/26 11:26:52;;;;;;;4.15;2.38;;;;;;;13.79;62.94;97540.66;5111605;28;20024;-82
2022/09/26 11:29:36;;;;;;;5.15;2.63;;;;;;;13.73;62.73;97512.38;5106737;28;20019;-83
2022/09/26 11:32:03;;;;;;;9.32;2.55;;;;;;;13.82;62.65;97526.66;5110843;28;20039;-83
2022/09/26 11:34:31;;;;;;;5.50;2.53;;;;;;;13.78;63.05;97531.03;5092030;28;20540;-83
2022/09/26 11:37:00;;;;;;;6.45;2.00;;;;;;;13.80;62.66;97528.84;5107144;28;20032;-83
2022/09/26 11:39:42;;;;;;;7.35;2.47;;;;;;;13.70;62.54;97507.59;5108498;28;20035;-83
2022/09/26 11:42:36;;;;;;;2.10;1.67;;;;;;;13.87;62.21;97513.16;5105913;28;20024;-82
2022/09/26 11:45:24;;;;;;;4.55;2.00;;;;;;;13.87;62.59;97503.19;5103306;28;20130;-83
2022/09/26 11:48:01;;;;;;;3.25;2.00;;;;;;;14.00;62.11;97506.94;5111661;28;20028;-83
2022/09/26 11:50:45;;;;;;;2.03;1.80;;;;;;;14.02;61.86;97504.75;5105336;28;20475;-82
2022/09/26 11:53:39;;;;;;;3.60;2.22;;;;;;;13.87;62.00;97505.09;5112120;28;20075;-83
2022/09/26 11:56:26;;;;;;;4.22;1.90;;;;;;;13.96;61.83;97500.56;5109497;27;20020;-82
2022/09/26 11:58:58;;;;;;;5.32;1.90;;;;;;;13.97;61.91;97494.94;5106179;28;20142;-83
2022/09/26 12:02:02;;;;;;;16.80;2.65;;;;;;;14.03;61.97;97496.41;5107173;28;20024;-83
2022/09/26 12:04:47;;;;;;;3.30;1.95;;;;;;;14.06;61.26;97486.94;5106536;28;20606;-83